sensor_id;sensor_type;location;lat;lon;timestamp;temperature;humidity
65766;SHT31;52915;53.718;19.946;2023-12-07T00:04:40;-1.25;82.64
65766;SHT31;52915;53.718;19.946;2023-12-07T00:09:44;-1.20;82.47
65766;SHT31;52915;53.718;19.946;2023-12-07T00:14:48;-1.17;82.46
65766;SHT31;52915;53.718;19.946;2023-12-07T00:19:51;-1.17;82.37
65766;SHT31;52915;53.718;19.946;2023-12-07T00:24:58;-1.26;82.49
65766;SHT31;52915;53.718;19.946;2023-12-07T00:30:02;-1.28;82.61
65766;SHT31;52915;53.718;19.946;2023-12-07T00:35:06;-1.23;82.72
65766;SHT31;52915;53.718;19.946;2023-12-07T00:40:11;-1.16;82.75
65766;SHT31;52915;53.718;19.946;2023-12-07T00:45:15;-1.09;82.75
65766;SHT31;52915;53.718;19.946;2023-12-07T00:50:19;-1.06;82.61
65766;SHT31;52915;53.718;19.946;2023-12-07T00:55:23;-1.06;82.61
65766;SHT31;52915;53.718;19.946;2023-12-07T01:00:26;-1.08;82.64
65766;SHT31;52915;53.718;19.946;2023-12-07T01:05:30;-1.08;82.64
65766;SHT31;52915;53.718;19.946;2023-12-07T01:10:35;-1.09;82.76
65766;SHT31;52915;53.718;19.946;2023-12-07T01:15:38;-1.02;82.79
65766;SHT31;52915;53.718;19.946;2023-12-07T01:20:42;-1.04;82.68
65766;SHT31;52915;53.718;19.946;2023-12-07T01:25:46;-1.14;82.76
65766;SHT31;52915;53.718;19.946;2023-12-07T01:30:50;-1.19;82.99
65766;SHT31;52915;53.718;19.946;2023-12-07T01:35:55;-1.25;83.21
65766;SHT31;52915;53.718;19.946;2023-12-07T01:40:59;-1.25;83.43
65766;SHT31;52915;53.718;19.946;2023-12-07T01:46:03;-1.18;83.50
65766;SHT31;52915;53.718;19.946;2023-12-07T01:51:08;-1.17;83.47
65766;SHT31;52915;53.718;19.946;2023-12-07T01:56:14;-1.23;83.45
65766;SHT31;52915;53.718;19.946;2023-12-07T02:01:19;-1.17;83.65
65766;SHT31;52915;53.718;19.946;2023-12-07T02:06:23;-1.16;83.61
65766;SHT31;52915;53.718;19.946;2023-12-07T02:11:29;-1.13;83.66
65766;SHT31;52915;53.718;19.946;2023-12-07T02:16:37;-1.06;83.64
65766;SHT31;52915;53.718;19.946;2023-12-07T02:21:50;-1.13;83.57
65766;SHT31;52915;53.718;19.946;2023-12-07T02:27:02;-1.12;83.74
65766;SHT31;52915;53.718;19.946;2023-12-07T02:32:06;-1.07;83.75
65766;SHT31;52915;53.718;19.946;2023-12-07T02:37:10;-1.06;83.75
65766;SHT31;52915;53.718;19.946;2023-12-07T02:42:14;-1.05;83.75
65766;SHT31;52915;53.718;19.946;2023-12-07T02:47:19;-1.04;83.74
65766;SHT31;52915;53.718;19.946;2023-12-07T02:52:23;-1.04;83.78
65766;SHT31;52915;53.718;19.946;2023-12-07T02:57:28;-1.07;83.76
65766;SHT31;52915;53.718;19.946;2023-12-07T03:02:36;-1.03;83.85
65766;SHT31;52915;53.718;19.946;2023-12-07T03:07:43;-1.00;83.89
65766;SHT31;52915;53.718;19.946;2023-12-07T03:12:47;-0.97;83.79
65766;SHT31;52915;53.718;19.946;2023-12-07T03:17:50;-0.96;83.79
65766;SHT31;52915;53.718;19.946;2023-12-07T03:22:54;-0.94;83.76
65766;SHT31;52915;53.718;19.946;2023-12-07T03:27:58;-0.93;83.74
65766;SHT31;52915;53.718;19.946;2023-12-07T03:33:02;-0.90;83.71
65766;SHT31;52915;53.718;19.946;2023-12-07T03:38:07;-0.89;83.68
65766;SHT31;52915;53.718;19.946;2023-12-07T03:43:11;-0.85;83.69
65766;SHT31;52915;53.718;19.946;2023-12-07T03:48:16;-0.83;83.70
65766;SHT31;52915;53.718;19.946;2023-12-07T03:53:21;-0.79;83.61
65766;SHT31;52915;53.718;19.946;2023-12-07T03:58:25;-0.76;83.52
65766;SHT31;52915;53.718;19.946;2023-12-07T04:03:28;-0.77;83.40
65766;SHT31;52915;53.718;19.946;2023-12-07T04:08:33;-0.82;83.37
65766;SHT31;52915;53.718;19.946;2023-12-07T04:13:36;-0.78;83.47
65766;SHT31;52915;53.718;19.946;2023-12-07T04:18:40;-0.85;83.36
65766;SHT31;52915;53.718;19.946;2023-12-07T04:23:44;-0.92;83.54
65766;SHT31;52915;53.718;19.946;2023-12-07T04:28:48;-0.90;83.79
65766;SHT31;52915;53.718;19.946;2023-12-07T04:33:52;-0.84;83.69
65766;SHT31;52915;53.718;19.946;2023-12-07T04:38:56;-0.84;83.69
65766;SHT31;52915;53.718;19.946;2023-12-07T04:44:00;-0.82;83.68
65766;SHT31;52915;53.718;19.946;2023-12-07T04:49:04;-0.84;83.68
65766;SHT31;52915;53.718;19.946;2023-12-07T04:54:08;-0.84;83.79
65766;SHT31;52915;53.718;19.946;2023-12-07T04:59:22;-0.85;83.85
65766;SHT31;52915;53.718;19.946;2023-12-07T05:04:26;-0.83;83.97
65766;SHT31;52915;53.718;19.946;2023-12-07T05:09:30;-0.84;83.98
65766;SHT31;52915;53.718;19.946;2023-12-07T05:14:34;-0.82;84.15
65766;SHT31;52915;53.718;19.946;2023-12-07T05:19:38;-0.84;84.11
65766;SHT31;52915;53.718;19.946;2023-12-07T05:24:42;-0.82;84.25
65766;SHT31;52915;53.718;19.946;2023-12-07T05:29:46;-0.82;84.25
65766;SHT31;52915;53.718;19.946;2023-12-07T05:34:50;-0.83;84.40
65766;SHT31;52915;53.718;19.946;2023-12-07T05:39:54;-0.86;84.39
65766;SHT31;52915;53.718;19.946;2023-12-07T05:44:58;-0.88;84.60
65766;SHT31;52915;53.718;19.946;2023-12-07T05:50:03;-0.88;84.65
65766;SHT31;52915;53.718;19.946;2023-12-07T05:55:07;-0.90;84.74
65766;SHT31;52915;53.718;19.946;2023-12-07T06:00:12;-0.86;84.89
65766;SHT31;52915;53.718;19.946;2023-12-07T06:05:17;-0.87;84.86
65766;SHT31;52915;53.718;19.946;2023-12-07T06:10:21;-0.84;84.96
65766;SHT31;52915;53.718;19.946;2023-12-07T06:15:25;-0.79;84.97
65766;SHT31;52915;53.718;19.946;2023-12-07T06:20:29;-0.74;84.96
65766;SHT31;52915;53.718;19.946;2023-12-07T06:25:33;-0.67;84.94
65766;SHT31;52915;53.718;19.946;2023-12-07T06:30:37;-0.64;84.86
65766;SHT31;52915;53.718;19.946;2023-12-07T06:35:42;-0.59;84.80
65766;SHT31;52915;53.718;19.946;2023-12-07T06:40:46;-0.59;84.76
65766;SHT31;52915;53.718;19.946;2023-12-07T06:45:51;-0.55;84.68
65766;SHT31;52915;53.718;19.946;2023-12-07T06:50:56;-0.56;84.57
65766;SHT31;52915;53.718;19.946;2023-12-07T06:55:59;-0.55;84.51
65766;SHT31;52915;53.718;19.946;2023-12-07T07:01:03;-0.56;84.40
65766;SHT31;52915;53.718;19.946;2023-12-07T07:06:08;-0.58;84.46
65766;SHT31;52915;53.718;19.946;2023-12-07T07:11:12;-0.56;84.33
65766;SHT31;52915;53.718;19.946;2023-12-07T07:16:20;-0.56;84.33
65766;SHT31;52915;53.718;19.946;2023-12-07T07:21:24;-0.52;84.31
65766;SHT31;52915;53.718;19.946;2023-12-07T07:26:28;-0.48;84.17
65766;SHT31;52915;53.718;19.946;2023-12-07T07:31:32;-0.49;84.10
65766;SHT31;52915;53.718;19.946;2023-12-07T07:36:36;-0.48;84.07
65766;SHT31;52915;53.718;19.946;2023-12-07T07:41:40;-0.44;84.04
65766;SHT31;52915;53.718;19.946;2023-12-07T07:46:44;-0.38;84.00
65766;SHT31;52915;53.718;19.946;2023-12-07T07:51:49;-0.31;83.97
65766;SHT31;52915;53.718;19.946;2023-12-07T07:56:54;-0.22;83.91
65766;SHT31;52915;53.718;19.946;2023-12-07T08:01:58;-0.09;83.81
65766;SHT31;52915;53.718;19.946;2023-12-07T08:07:02;0.06;83.68
65766;SHT31;52915;53.718;19.946;2023-12-07T08:12:06;0.16;83.38
65766;SHT31;52915;53.718;19.946;2023-12-07T08:17:11;0.31;83.28
65766;SHT31;52915;53.718;19.946;2023-12-07T08:22:16;0.42;82.98
65766;SHT31;52915;53.718;19.946;2023-12-07T08:27:20;0.49;82.75
65766;SHT31;52915;53.718;19.946;2023-12-07T08:32:24;0.57;82.57
65766;SHT31;52915;53.718;19.946;2023-12-07T08:37:33;0.68;82.39
65766;SHT31;52915;53.718;19.946;2023-12-07T08:42:40;0.66;82.14
65766;SHT31;52915;53.718;19.946;2023-12-07T08:47:52;0.78;82.30
65766;SHT31;52915;53.718;19.946;2023-12-07T08:52:57;0.95;82.13
65766;SHT31;52915;53.718;19.946;2023-12-07T08:58:07;0.99;81.81
65766;SHT31;52915;53.718;19.946;2023-12-07T09:03:11;1.03;81.69
65766;SHT31;52915;53.718;19.946;2023-12-07T09:08:16;1.13;81.60
65766;SHT31;52915;53.718;19.946;2023-12-07T09:13:20;1.18;81.36
65766;SHT31;52915;53.718;19.946;2023-12-07T09:18:24;1.23;81.36
65766;SHT31;52915;53.718;19.946;2023-12-07T09:23:29;1.39;81.14
65766;SHT31;52915;53.718;19.946;2023-12-07T09:28:35;1.45;80.91
65766;SHT31;52915;53.718;19.946;2023-12-07T09:33:39;1.42;80.68
65766;SHT31;52915;53.718;19.946;2023-12-07T09:38:47;1.49;80.79
65766;SHT31;52915;53.718;19.946;2023-12-07T09:43:51;1.60;80.59
65766;SHT31;52915;53.718;19.946;2023-12-07T09:48:55;1.67;80.36
65766;SHT31;52915;53.718;19.946;2023-12-07T09:53:59;1.66;80.29
65766;SHT31;52915;53.718;19.946;2023-12-07T09:59:04;1.70;80.17
65766;SHT31;52915;53.718;19.946;2023-12-07T10:04:20;1.62;80.04
65766;SHT31;52915;53.718;19.946;2023-12-07T10:09:30;1.66;80.30
65766;SHT31;52915;53.718;19.946;2023-12-07T10:14:37;1.81;80.14
65766;SHT31;52915;53.718;19.946;2023-12-07T10:19:41;1.90;79.92
65766;SHT31;52915;53.718;19.946;2023-12-07T10:24:45;2.09;79.89
65766;SHT31;52915;53.718;19.946;2023-12-07T10:29:51;2.25;79.56
65766;SHT31;52915;53.718;19.946;2023-12-07T10:34:55;2.34;79.17
65766;SHT31;52915;53.718;19.946;2023-12-07T10:40:02;2.35;79.10
65766;SHT31;52915;53.718;19.946;2023-12-07T10:45:09;2.48;78.89
65766;SHT31;52915;53.718;19.946;2023-12-07T10:50:21;2.68;78.71
65766;SHT31;52915;53.718;19.946;2023-12-07T10:55:32;2.82;78.15
65766;SHT31;52915;53.718;19.946;2023-12-07T11:00:54;2.88;77.87
65766;SHT31;52915;53.718;19.946;2023-12-07T11:06:01;2.99;77.68
65766;SHT31;52915;53.718;19.946;2023-12-07T11:16:39;2.84;77.24
65766;SHT31;52915;53.718;19.946;2023-12-07T11:21:46;2.71;77.07
65766;SHT31;52915;53.718;19.946;2023-12-07T11:26:55;2.54;77.14
65766;SHT31;52915;53.718;19.946;2023-12-07T11:32:01;2.46;77.24
65766;SHT31;52915;53.718;19.946;2023-12-07T11:37:21;2.28;77.25
65766;SHT31;52915;53.718;19.946;2023-12-07T11:42:26;2.22;77.45
65766;SHT31;52915;53.718;19.946;2023-12-07T11:47:30;2.16;77.29
65766;SHT31;52915;53.718;19.946;2023-12-07T11:52:34;2.17;77.46
65766;SHT31;52915;53.718;19.946;2023-12-07T11:57:41;2.23;77.54
65766;SHT31;52915;53.718;19.946;2023-12-07T12:02:48;2.19;77.18
65766;SHT31;52915;53.718;19.946;2023-12-07T12:07:53;2.11;77.15
65766;SHT31;52915;53.718;19.946;2023-12-07T12:12:57;2.07;77.12
65766;SHT31;52915;53.718;19.946;2023-12-07T12:18:06;2.04;77.23
65766;SHT31;52915;53.718;19.946;2023-12-07T12:23:12;2.07;77.33
65766;SHT31;52915;53.718;19.946;2023-12-07T12:28:17;2.11;77.26
65766;SHT31;52915;53.718;19.946;2023-12-07T12:33:26;2.06;77.25
65766;SHT31;52915;53.718;19.946;2023-12-07T12:38:30;2.11;77.44
65766;SHT31;52915;53.718;19.946;2023-12-07T12:43:45;2.10;77.52
65766;SHT31;52915;53.718;19.946;2023-12-07T12:49:00;2.12;77.61
65766;SHT31;52915;53.718;19.946;2023-12-07T12:54:04;2.09;77.72
65766;SHT31;52915;53.718;19.946;2023-12-07T12:59:16;2.11;77.82
65766;SHT31;52915;53.718;19.946;2023-12-07T13:04:20;2.18;77.90
65766;SHT31;52915;53.718;19.946;2023-12-07T13:09:25;2.13;77.64
65766;SHT31;52915;53.718;19.946;2023-12-07T13:14:29;2.01;77.85
65766;SHT31;52915;53.718;19.946;2023-12-07T13:19:35;1.97;78.04
65766;SHT31;52915;53.718;19.946;2023-12-07T13:24:39;1.86;78.18
65766;SHT31;52915;53.718;19.946;2023-12-07T13:29:43;1.77;78.42
65766;SHT31;52915;53.718;19.946;2023-12-07T13:34:47;1.68;78.60
65766;SHT31;52915;53.718;19.946;2023-12-07T13:39:51;1.62;78.92
65766;SHT31;52915;53.718;19.946;2023-12-07T13:45:00;1.57;79.11
65766;SHT31;52915;53.718;19.946;2023-12-07T13:50:05;1.51;79.36
65766;SHT31;52915;53.718;19.946;2023-12-07T13:55:11;1.39;79.53
65766;SHT31;52915;53.718;19.946;2023-12-07T14:00:16;1.36;79.81
65766;SHT31;52915;53.718;19.946;2023-12-07T14:05:20;1.39;79.74
65766;SHT31;52915;53.718;19.946;2023-12-07T14:10:25;1.32;79.85
65766;SHT31;52915;53.718;19.946;2023-12-07T14:15:34;1.30;80.06
65766;SHT31;52915;53.718;19.946;2023-12-07T14:20:47;1.29;80.00
65766;SHT31;52915;53.718;19.946;2023-12-07T14:26:09;1.23;80.14
65766;SHT31;52915;53.718;19.946;2023-12-07T14:31:14;1.17;80.29
65766;SHT31;52915;53.718;19.946;2023-12-07T14:36:20;1.13;80.43
65766;SHT31;52915;53.718;19.946;2023-12-07T14:41:26;1.15;80.56
65766;SHT31;52915;53.718;19.946;2023-12-07T14:46:31;1.09;80.54
65766;SHT31;52915;53.718;19.946;2023-12-07T14:51:35;1.08;80.67
65766;SHT31;52915;53.718;19.946;2023-12-07T14:56:41;1.04;80.64
65766;SHT31;52915;53.718;19.946;2023-12-07T15:01:46;1.06;80.69
65766;SHT31;52915;53.718;19.946;2023-12-07T15:06:50;1.02;80.73
65766;SHT31;52915;53.718;19.946;2023-12-07T15:11:58;0.99;80.69
65766;SHT31;52915;53.718;19.946;2023-12-07T15:17:03;1.00;80.60
65766;SHT31;52915;53.718;19.946;2023-12-07T15:22:09;0.99;80.56
65766;SHT31;52915;53.718;19.946;2023-12-07T15:27:17;0.98;80.57
65766;SHT31;52915;53.718;19.946;2023-12-07T15:32:23;0.97;80.55
65766;SHT31;52915;53.718;19.946;2023-12-07T15:37:28;0.95;80.51
65766;SHT31;52915;53.718;19.946;2023-12-07T15:42:33;0.93;80.71
65766;SHT31;52915;53.718;19.946;2023-12-07T15:47:39;0.91;80.74
65766;SHT31;52915;53.718;19.946;2023-12-07T15:52:47;0.90;80.83
65766;SHT31;52915;53.718;19.946;2023-12-07T15:57:52;0.87;80.95
65766;SHT31;52915;53.718;19.946;2023-12-07T16:03:01;0.87;80.87
65766;SHT31;52915;53.718;19.946;2023-12-07T16:08:07;0.87;80.53
65766;SHT31;52915;53.718;19.946;2023-12-07T16:13:12;0.76;80.50
65766;SHT31;52915;53.718;19.946;2023-12-07T16:18:18;0.71;80.58
65766;SHT31;52915;53.718;19.946;2023-12-07T16:23:23;0.65;80.67
65766;SHT31;52915;53.718;19.946;2023-12-07T16:28:33;0.64;80.74
65766;SHT31;52915;53.718;19.946;2023-12-07T16:33:41;0.70;80.69
65766;SHT31;52915;53.718;19.946;2023-12-07T16:38:46;0.67;80.67
65766;SHT31;52915;53.718;19.946;2023-12-07T16:43:52;0.71;80.73
65766;SHT31;52915;53.718;19.946;2023-12-07T16:48:56;0.73;80.62
65766;SHT31;52915;53.718;19.946;2023-12-07T16:54:03;0.74;80.63
65766;SHT31;52915;53.718;19.946;2023-12-07T16:59:11;0.74;80.63
65766;SHT31;52915;53.718;19.946;2023-12-07T17:04:19;0.72;80.68
65766;SHT31;52915;53.718;19.946;2023-12-07T17:09:25;0.75;80.60
65766;SHT31;52915;53.718;19.946;2023-12-07T17:14:33;0.72;80.48
65766;SHT31;52915;53.718;19.946;2023-12-07T17:19:41;0.67;80.75
65766;SHT31;52915;53.718;19.946;2023-12-07T17:24:54;0.63;80.86
65766;SHT31;52915;53.718;19.946;2023-12-07T17:29:59;0.65;80.90
65766;SHT31;52915;53.718;19.946;2023-12-07T17:35:06;0.62;80.95
65766;SHT31;52915;53.718;19.946;2023-12-07T17:40:12;0.63;81.07
65766;SHT31;52915;53.718;19.946;2023-12-07T17:45:17;0.61;81.02
65766;SHT31;52915;53.718;19.946;2023-12-07T17:50:22;0.54;81.21
65766;SHT31;52915;53.718;19.946;2023-12-07T17:55:27;0.49;81.35
65766;SHT31;52915;53.718;19.946;2023-12-07T18:00:33;0.51;81.46
65766;SHT31;52915;53.718;19.946;2023-12-07T18:05:38;0.53;81.39
65766;SHT31;52915;53.718;19.946;2023-12-07T18:10:43;0.49;81.32
65766;SHT31;52915;53.718;19.946;2023-12-07T18:15:51;0.47;81.17
65766;SHT31;52915;53.718;19.946;2023-12-07T18:21:02;0.47;81.06
65766;SHT31;52915;53.718;19.946;2023-12-07T18:26:09;0.44;80.72
65766;SHT31;52915;53.718;19.946;2023-12-07T18:31:15;0.42;80.61
65766;SHT31;52915;53.718;19.946;2023-12-07T18:36:20;0.36;80.58
65766;SHT31;52915;53.718;19.946;2023-12-07T18:41:31;0.27;80.74
65766;SHT31;52915;53.718;19.946;2023-12-07T18:46:37;0.28;80.85
65766;SHT31;52915;53.718;19.946;2023-12-07T18:51:48;0.35;80.53
65766;SHT31;52915;53.718;19.946;2023-12-07T18:56:53;0.33;80.56
65766;SHT31;52915;53.718;19.946;2023-12-07T19:01:59;0.26;80.60
65766;SHT31;52915;53.718;19.946;2023-12-07T19:07:05;0.19;80.76
65766;SHT31;52915;53.718;19.946;2023-12-07T19:12:11;0.15;80.76
65766;SHT31;52915;53.718;19.946;2023-12-07T19:17:18;0.06;81.00
65766;SHT31;52915;53.718;19.946;2023-12-07T19:22:27;-0.01;81.25
65766;SHT31;52915;53.718;19.946;2023-12-07T19:27:34;-0.01;81.50
65766;SHT31;52915;53.718;19.946;2023-12-07T19:32:39;-0.12;81.68
65766;SHT31;52915;53.718;19.946;2023-12-07T19:37:45;-0.12;82.03
65766;SHT31;52915;53.718;19.946;2023-12-07T19:42:52;-0.14;82.08
65766;SHT31;52915;53.718;19.946;2023-12-07T19:47:58;-0.17;82.32
65766;SHT31;52915;53.718;19.946;2023-12-07T19:53:04;-0.13;82.43
65766;SHT31;52915;53.718;19.946;2023-12-07T19:58:14;-0.14;82.61
65766;SHT31;52915;53.718;19.946;2023-12-07T20:03:20;-0.13;82.67
65766;SHT31;52915;53.718;19.946;2023-12-07T20:08:27;-0.18;82.55
65766;SHT31;52915;53.718;19.946;2023-12-07T20:13:34;-0.22;82.19
65766;SHT31;52915;53.718;19.946;2023-12-07T20:18:39;-0.30;82.22
65766;SHT31;52915;53.718;19.946;2023-12-07T20:23:52;-0.40;82.27
65766;SHT31;52915;53.718;19.946;2023-12-07T20:28:57;-0.37;82.25
65766;SHT31;52915;53.718;19.946;2023-12-07T20:34:03;-0.39;82.04
65766;SHT31;52915;53.718;19.946;2023-12-07T20:39:12;-0.44;82.07
65766;SHT31;52915;53.718;19.946;2023-12-07T20:44:21;-0.40;81.91
65766;SHT31;52915;53.718;19.946;2023-12-07T20:49:29;-0.44;81.99
65766;SHT31;52915;53.718;19.946;2023-12-07T20:54:44;-0.40;81.79
65766;SHT31;52915;53.718;19.946;2023-12-07T20:59:51;-0.44;81.90
65766;SHT31;52915;53.718;19.946;2023-12-07T21:04:58;-0.47;81.97
65766;SHT31;52915;53.718;19.946;2023-12-07T21:10:04;-0.46;82.14
65766;SHT31;52915;53.718;19.946;2023-12-07T21:15:12;-0.45;82.08
65766;SHT31;52915;53.718;19.946;2023-12-07T21:20:18;-0.51;82.03
65766;SHT31;52915;53.718;19.946;2023-12-07T21:25:25;-0.50;81.70
65766;SHT31;52915;53.718;19.946;2023-12-07T21:30:31;-0.52;81.31
65766;SHT31;52915;53.718;19.946;2023-12-07T21:35:36;-0.50;80.95
65766;SHT31;52915;53.718;19.946;2023-12-07T21:40:42;-0.52;80.82
65766;SHT31;52915;53.718;19.946;2023-12-07T21:45:46;-0.53;80.87
65766;SHT31;52915;53.718;19.946;2023-12-07T21:50:50;-0.50;80.94
65766;SHT31;52915;53.718;19.946;2023-12-07T21:55:55;-0.47;80.96
65766;SHT31;52915;53.718;19.946;2023-12-07T22:01:00;-0.47;81.02
65766;SHT31;52915;53.718;19.946;2023-12-07T22:06:04;-0.55;81.24
65766;SHT31;52915;53.718;19.946;2023-12-07T22:11:08;-0.51;81.47
65766;SHT31;52915;53.718;19.946;2023-12-07T22:16:13;-0.49;81.56
65766;SHT31;52915;53.718;19.946;2023-12-07T22:21:17;-0.62;81.56
65766;SHT31;52915;53.718;19.946;2023-12-07T22:26:23;-0.71;81.39
65766;SHT31;52915;53.718;19.946;2023-12-07T22:31:27;-0.79;81.25
65766;SHT31;52915;53.718;19.946;2023-12-07T22:36:31;-0.79;81.26
65766;SHT31;52915;53.718;19.946;2023-12-07T22:41:35;-0.85;81.23
65766;SHT31;52915;53.718;19.946;2023-12-07T22:46:43;-0.92;81.06
65766;SHT31;52915;53.718;19.946;2023-12-07T22:51:48;-1.00;81.21
65766;SHT31;52915;53.718;19.946;2023-12-07T22:56:52;-0.98;81.05
65766;SHT31;52915;53.718;19.946;2023-12-07T23:01:56;-0.99;81.14
65766;SHT31;52915;53.718;19.946;2023-12-07T23:07:00;-1.03;81.33
65766;SHT31;52915;53.718;19.946;2023-12-07T23:12:04;-1.08;81.62
65766;SHT31;52915;53.718;19.946;2023-12-07T23:17:08;-1.07;81.90
65766;SHT31;52915;53.718;19.946;2023-12-07T23:22:12;-1.04;82.12
65766;SHT31;52915;53.718;19.946;2023-12-07T23:27:16;-1.02;82.06
65766;SHT31;52915;53.718;19.946;2023-12-07T23:32:20;-1.07;81.89
65766;SHT31;52915;53.718;19.946;2023-12-07T23:37:24;-1.22;81.44
65766;SHT31;52915;53.718;19.946;2023-12-07T23:42:28;-1.38;81.31
65766;SHT31;52915;53.718;19.946;2023-12-07T23:47:32;-1.49;81.61
65766;SHT31;52915;53.718;19.946;2023-12-07T23:52:36;-1.50;81.43
65766;SHT31;52915;53.718;19.946;2023-12-07T23:57:41;-1.48;81.64
